Del Norte International Airport
MMAN : now visible

Airfield :











YOU CAN JOIN US ON...

 
LOGIN :

Register | Disclaimer

   EN    FR    IT 

 









Legend :    VFR   Marginal VFR   IFR   Intensive IFR   Very Intensive IFR
Visi :
Ceiling :
>= 8 km
>= 3000ft
5 to 8 km
1000 to 3000 ft
1500m to 5 km
500 to 1000 ft
800 to 1500m
200 to 500 ft
< 800m
< 200 ft
Symbols :   Thunderstorms  Fog  Heavy snow  Heavy precipitations  Wind > 20 kt






- Airport Elevation : 1476 ft
- IATA code : NTR


MMAN - Del Norte International

CURRENT METAR :
  • 222240Z 00000KT 15SM FEW035 SCT080 30/19 A2993 RMK 8/530

EXPIRED METARs :
  • 222140Z 29006KT 15SM FEW100 30/18 A2994 RMK 8/030 ISOL SC
  • 222040Z 34008KT 15SM FEW050 BKN100 30/17 A2995 RMK SLP/// 5//// 9// 8/410

TAF TAF MMAN
Valid from the 22 at 18:00 until the 23 at 18:00 UTC


221740Z 2218/2318 06005KT P6SM SCT030 OVC100
BECMG 2221/2222 BKN030CB
TEMPO 2223/2303 4SM TSRA BKN030CB
FM230300 13005KT P6SM SCT050 BKN100
TEMPO 2310/2314 BKN015
FM231400 13010KT P6SM BKN015 OVC070
FM231800 13015KT P6SM SCT040 BKN250
MMFR FIR / North America



MET'MAP, your aeronautical weather chart ! - Copyright ORBIFLY December 2007 - Disclaimer

ORBIFLY MET'MAP TEAM :

Programming & Development : Alexandra Zaïnal
Concept & original design : Baudouin d'Aumeries
Assistance for programming : Marc-Olivier Méhu
Technical & hardware support : Manuel Goepfert

Contact : metmap@orbifly.com




SOURCES & CREDITS :

   NOAA       Earth
Advisory